This is the latest recevied weather packets stored in our database for station/object AJ1L. If no packets are shown the sender has not sent any weather packets the latest 10 day(s).
| Time | Temp. | Humidity | Pressure | Rain* | Wind** | Luminosity | Snow |
|---|---|---|---|---|---|---|---|
| 1777945648 | 12.22° C | 70% | 1011.3 hPa | 0 mm | - | - | - |
| 1777944648 | 12.78° C | 68% | 1011.1 hPa | 0 mm | - | - | - |
| 1777942647 | 13.33° C | 65% | 1010.5 hPa | 0 mm | - | - | - |
| 1777941648 | 13.33° C | 63% | 1010.1 hPa | 0 mm | - | - | - |
| 1777940647 | 13.89° C | 60% | 1009.8 hPa | 0 mm | - | - | - |
| 1777939647 | 14.44° C | 57% | 1009.4 hPa | 0 mm | - | - | - |
| 1777938648 | 14.44° C | 55% | 1009.2 hPa | 0 mm | - | - | - |
| 1777936647 | 16.11° C | 49% | 1008.7 hPa | 0 mm | - | - | - |
| 1777935648 | 16.67° C | 46% | 1008.4 hPa | 0 mm | - | - | - |
| 1777934647 | 17.78° C | 45% | 1008.3 hPa | 0 mm | - | - | - |
| 1777933648 | 17.78° C | 44% | 1008 hPa | 0 mm | - | - | - |
| 1777932648 | 18.33° C | 43% | 1007.9 hPa | 0 mm | - | - | - |
| 1777931647 | 18.89° C | 43% | 1007.9 hPa | 0 mm | - | - | - |
| 1777930647 | 18.33° C | 43% | 1007.8 hPa | 0 mm | - | - | - |
| 1777928647 | 19.44° C | 40% | 1007.7 hPa | 0 mm | - | - | - |
| 1777927647 | 19.44° C | 38% | 1007.6 hPa | 0 mm | - | - | - |
| 1777926648 | 19.44° C | 37% | 1007.6 hPa | 0 mm | - | - | - |
| 1777925647 | 20° C | 37% | 1007.5 hPa | 0 mm | - | - | - |
| 1777924648 | 20.56° C | 34% | 1007.6 hPa | 0 mm | - | - | - |
| 1777923647 | 21.11° C | 31% | 1007.5 hPa | 0 mm | - | - | - |
| 1777922647 | 21.11° C | 29% | 1007.4 hPa | 0 mm | - | - | - |
| 1777921647 | 21.11° C | 30% | 1007.5 hPa | 0 mm | - | - | - |
| 1777920648 | 21.11° C | 29% | 1007.6 hPa | 0 mm | - | - | - |
| 1777919647 | 21.11° C | 29% | 1007.8 hPa | 0 mm | - | - | - |
| 1777917647 | 21.11° C | 29% | 1007.9 hPa | 0 mm | - | - | - |
* Rain latest hour (hover to see other rain measurements)
** Current wind speed in m/s (hover to see current wind gust speed)